createdAt,value
2019-01-27T00:04:44.357Z,98562.19
2019-01-27T00:07:33.239Z,98547.10
2019-01-27T00:10:22.130Z,98495.16
2019-01-27T00:13:10.984Z,98530.08
2019-01-27T00:15:59.850Z,98524.59
2019-01-27T00:18:48.820Z,98504.40
2019-01-27T00:21:37.709Z,98513.45
2019-01-27T00:24:19.114Z,98509.77
2019-01-27T00:27:07.991Z,98501.95
2019-01-27T00:29:56.830Z,98446.09
2019-01-27T00:32:45.698Z,98500.06
2019-01-27T00:35:34.522Z,98497.52
2019-01-27T00:38:23.364Z,98477.37
2019-01-27T00:41:12.279Z,98477.02
2019-01-27T00:44:01.082Z,98464.50
2019-01-27T00:46:49.931Z,98399.09
2019-01-27T00:49:38.724Z,98449.27
2019-01-27T00:52:27.630Z,98443.03
2019-01-27T00:55:37.388Z,98438.33
2019-01-27T00:58:26.273Z,98431.99
2019-01-27T01:01:15.187Z,98423.86
2019-01-27T01:07:19.459Z,98366.43
2019-01-27T01:10:29.215Z,98407.64
2019-01-27T01:13:18.012Z,98397.44
2019-01-27T01:16:07.087Z,98363.63
2019-01-27T01:18:55.883Z,98397.80
2019-01-27T01:21:44.752Z,98352.78
2019-01-27T01:24:26.861Z,98384.81
2019-01-27T01:27:15.761Z,98383.23
2019-01-27T01:30:25.464Z,98375.95
2019-01-27T01:33:14.338Z,98367.31
2019-01-27T01:36:03.236Z,98365.31
2019-01-27T01:38:32.760Z,98358.24
2019-01-27T01:41:21.594Z,98353.50
2019-01-27T01:44:10.382Z,98352.30
2019-01-27T01:46:59.232Z,98351.29
2019-01-27T01:49:48.022Z,98349.92
2019-01-27T01:52:36.914Z,98348.34
2019-01-27T01:55:25.811Z,98342.64
2019-01-27T01:58:14.638Z,98343.23
2019-01-27T02:01:03.543Z,98331.67
2019-01-27T02:03:52.447Z,98328.16
2019-01-27T02:06:41.273Z,98327.55
2019-01-27T02:09:30.132Z,98323.63
2019-01-27T02:12:18.931Z,98315.00
2019-01-27T02:15:28.667Z,98300.04
2019-01-27T02:18:17.482Z,98295.77
2019-01-27T02:21:27.270Z,98284.39
2019-01-27T02:24:09.250Z,98275.50
2019-01-27T02:26:58.167Z,98202.45
2019-01-27T02:29:47.085Z,98259.38
2019-01-27T02:32:28.930Z,98257.02
2019-01-27T02:35:17.799Z,98245.64
2019-01-27T02:38:06.699Z,98239.34
2019-01-27T02:40:55.620Z,98230.14
2019-01-27T02:43:44.488Z,98232.08
2019-01-27T02:46:33.327Z,98224.45
2019-01-27T02:49:22.126Z,98211.06
2019-01-27T02:52:10.949Z,98139.05
2019-01-27T02:54:59.872Z,98197.59
2019-01-27T02:57:48.775Z,98196.82
2019-01-27T03:00:37.766Z,98197.59
2019-01-27T03:03:26.671Z,98192.70
2019-01-27T03:12:21.907Z,98178.45
2019-01-27T03:15:31.648Z,98175.11
2019-01-27T03:18:20.509Z,98166.32
2019-01-27T03:21:09.338Z,98162.00
2019-01-27T03:23:58.202Z,98158.84
2019-01-27T03:26:40.081Z,98155.51
2019-01-27T03:29:28.889Z,98152.41
2019-01-27T03:32:17.711Z,98138.09
2019-01-27T03:35:27.425Z,98127.94
2019-01-27T03:38:16.241Z,98124.44
2019-01-27T03:41:05.106Z,98120.12
2019-01-27T03:43:53.942Z,98118.95
2019-01-27T03:46:42.799Z,98114.84
2019-01-27T03:49:31.652Z,98102.70
2019-01-27T03:52:20.452Z,98104.28
2019-01-27T03:55:30.187Z,98092.71
2019-01-27T03:58:19.021Z,98049.03
2019-01-27T04:01:07.910Z,98080.98
2019-01-27T04:03:56.744Z,98078.84
2019-01-27T04:06:45.568Z,98058.42
2019-01-27T04:09:34.422Z,98063.16
2019-01-27T04:12:23.300Z,98061.02
2019-01-27T04:18:26.921Z,98044.92
2019-01-27T04:21:15.727Z,98049.84
2019-01-27T04:23:57.748Z,98039.45
2019-01-27T04:26:46.669Z,97990.91
2019-01-27T04:29:35.527Z,98028.11
2019-01-27T04:32:24.375Z,98026.58
2019-01-27T04:35:13.340Z,97953.48
2019-01-27T04:38:02.132Z,98009.73
2019-01-27T04:40:51.732Z,98000.73
2019-01-27T04:43:40.652Z,97991.91
2019-01-27T04:46:29.445Z,97982.91
2019-01-27T04:49:18.270Z,97985.05
2019-01-27T04:52:07.214Z,97970.56
2019-01-27T04:54:56.072Z,97965.84
2019-01-27T04:57:44.946Z,97953.51
2019-01-27T05:00:33.899Z,97881.27
2019-01-27T05:06:32.098Z,97943.30
2019-01-27T05:09:20.908Z,97937.98
2019-01-27T05:12:09.790Z,97918.89
2019-01-27T05:14:58.584Z,97938.58
2019-01-27T05:17:47.440Z,97934.47
2019-01-27T05:20:36.296Z,97929.19
2019-01-27T05:23:25.187Z,97927.81
2019-01-27T05:26:06.780Z,97924.10
2019-01-27T05:28:55.620Z,97917.45
2019-01-27T05:31:44.454Z,97913.34
2019-01-27T05:34:33.325Z,97908.25
2019-01-27T05:37:22.159Z,97911.20
2019-01-27T05:40:31.895Z,97907.49
2019-01-27T05:43:20.710Z,97904.95
2019-01-27T05:46:09.539Z,97907.13
2019-01-27T05:48:58.342Z,97906.36
2019-01-27T05:51:47.228Z,97900.27
2019-01-27T05:54:36.073Z,97906.77
2019-01-27T05:57:24.988Z,97902.85
2019-01-27T06:03:29.527Z,97897.77
2019-01-27T06:06:18.398Z,97895.03
2019-01-27T06:09:07.770Z,97890.91
2019-01-27T06:11:56.631Z,97890.52
2019-01-27T06:14:45.490Z,97880.91
2019-01-27T06:17:34.341Z,97868.37
2019-01-27T06:20:23.239Z,97860.94
2019-01-27T06:23:12.086Z,97854.08
2019-01-27T06:25:54.275Z,97812.60
2019-01-27T06:28:43.118Z,97854.28
2019-01-27T06:31:31.954Z,97820.27
2019-01-27T06:34:20.757Z,97845.85
2019-01-27T06:37:09.687Z,97838.39
2019-01-27T06:39:58.514Z,97827.95
2019-01-27T06:42:47.352Z,97836.82
2019-01-27T06:45:36.337Z,97836.82
2019-01-27T06:48:25.147Z,97829.77
2019-01-27T06:51:14.068Z,97822.70
2019-01-27T06:54:02.917Z,97816.25
2019-01-27T06:56:51.708Z,97825.25
2019-01-27T07:08:31.941Z,97806.39
2019-01-27T07:14:36.058Z,97798.92
2019-01-27T07:26:27.957Z,97815.78
2019-01-27T07:29:16.552Z,97825.38
2019-01-27T07:32:24.492Z,97840.66
2019-01-27T07:35:32.430Z,97829.69
2019-01-27T07:47:44.830Z,97745.26
2019-01-27T07:50:52.754Z,97814.64
2019-01-27T07:54:00.668Z,97815.25
2019-01-27T07:57:08.537Z,97800.77
2019-01-27T08:00:16.466Z,97770.70
2019-01-27T08:03:24.390Z,97798.81
2019-01-27T08:06:32.344Z,97800.59
2019-01-27T08:12:39.525Z,97797.87
2019-01-27T08:18:56.756Z,97796.13
2019-01-27T08:22:04.591Z,97794.59
2019-01-27T08:25:12.449Z,97750.39
2019-01-27T08:27:58.345Z,97798.50
2019-01-27T08:31:06.156Z,97796.16
2019-01-27T08:34:14.123Z,97787.12
2019-01-27T08:37:21.988Z,97779.50
2019-01-27T08:40:49.169Z,97780.67
2019-01-27T08:43:57.007Z,97781.44
2019-01-27T08:49:41.790Z,97780.67
2019-01-27T08:52:30.616Z,97772.64
2019-01-27T08:55:19.578Z,97768.52
2019-01-27T08:58:08.428Z,97769.13
2019-01-27T09:04:12.431Z,97771.09
2019-01-27T09:07:20.351Z,97764.62
2019-01-27T09:10:01.770Z,97752.87
2019-01-27T09:13:11.241Z,97746.41
2019-01-27T09:16:19.367Z,97744.26
2019-01-27T09:19:27.289Z,97737.19
2019-01-27T09:25:31.491Z,97733.69
2019-01-27T09:28:39.363Z,97726.25
2019-01-27T09:31:47.259Z,97734.89
2019-01-27T09:40:50.019Z,97647.38
2019-01-27T09:50:01.806Z,97643.50
2019-01-27T09:53:09.703Z,97707.45
2019-01-27T09:56:17.629Z,97710.78
2019-01-27T09:59:25.565Z,97713.55
2019-01-27T10:08:38.819Z,97694.52
2019-01-27T10:11:39.664Z,97703.91
2019-01-27T10:17:46.744Z,97702.75
2019-01-27T10:20:54.694Z,97704.13
2019-01-27T10:24:02.531Z,97667.06
2019-01-27T10:27:10.362Z,97698.41
2019-01-27T10:39:09.275Z,97691.95
2019-01-27T10:45:12.612Z,97679.97
2019-01-27T10:48:20.470Z,97681.15
2019-01-27T10:51:28.429Z,97673.30
2019-01-27T11:00:52.640Z,97669.00
2019-01-27T11:04:00.570Z,97664.30
2019-01-27T11:07:08.524Z,97666.26
2019-01-27T11:10:16.455Z,97640.34
2019-01-27T11:16:20.327Z,97643.06
2019-01-27T11:22:27.527Z,97638.92
2019-01-27T11:25:35.468Z,97636.78
2019-01-27T11:28:36.722Z,97633.44
2019-01-27T11:37:43.203Z,97623.81
2019-01-27T11:43:22.187Z,97617.33
2019-01-27T11:45:53.290Z,97617.52
2019-01-27T11:48:30.463Z,97613.59
2019-01-27T11:51:01.639Z,97610.84
2019-01-27T11:53:31.137Z,97610.23
2019-01-27T11:56:00.625Z,97609.66
2019-01-27T11:58:31.286Z,97605.12
2019-01-27T12:01:02.570Z,97608.86
2019-01-27T12:03:32.052Z,97608.67
2019-01-27T12:06:01.650Z,97605.73
2019-01-27T12:08:31.172Z,97610.84
2019-01-27T12:11:00.724Z,97613.78
2019-01-27T12:13:30.290Z,97615.37
2019-01-27T12:15:59.796Z,97620.48
2019-01-27T12:18:29.288Z,97614.58
2019-01-27T12:20:58.798Z,97601.63
2019-01-27T12:23:28.265Z,97599.48
2019-01-27T12:25:57.865Z,97607.16
2019-01-27T12:28:27.438Z,97597.75
2019-01-27T12:30:56.991Z,97603.25
2019-01-27T12:33:27.249Z,97596.19
2019-01-27T12:35:56.767Z,97598.55
2019-01-27T12:38:26.314Z,97598.55
2019-01-27T12:40:55.845Z,97598.32
2019-01-27T12:43:25.394Z,97589.89
2019-01-27T12:45:54.951Z,97594.42
2019-01-27T12:48:24.511Z,97589.31
2019-01-27T12:50:53.982Z,97589.31
2019-01-27T12:53:23.626Z,97587.74
2019-01-27T12:55:53.134Z,97585.98
2019-01-27T12:58:22.723Z,97586.56
2019-01-27T13:00:54.907Z,97586.17
2019-01-27T13:03:24.405Z,97583.42
2019-01-27T13:05:53.932Z,97584.41
2019-01-27T13:08:23.491Z,97580.30
2019-01-27T13:10:53.032Z,97578.92
2019-01-27T13:13:22.581Z,97584.03
2019-01-27T13:15:52.065Z,97582.05
2019-01-27T13:18:21.557Z,97579.50
2019-01-27T13:20:51.096Z,97580.30
2019-01-27T13:23:20.575Z,97582.44
2019-01-27T13:25:50.190Z,97579.89
2019-01-27T13:28:19.764Z,97582.63
2019-01-27T13:30:49.258Z,97576.34
2019-01-27T13:33:18.979Z,97578.52
2019-01-27T13:35:48.576Z,97578.73
2019-01-27T13:38:18.145Z,97566.76
2019-01-27T13:40:47.765Z,97569.09
2019-01-27T13:43:17.283Z,97563.79
2019-01-27T13:45:46.840Z,97571.05
2019-01-27T13:48:16.370Z,97568.30
2019-01-27T13:50:45.886Z,97563.59
2019-01-27T13:53:15.400Z,97564.37
2019-01-27T13:55:44.958Z,97564.37
2019-01-27T13:58:14.512Z,97563.38
2019-01-27T14:00:44.350Z,97566.12
2019-01-27T14:03:13.874Z,97568.88
2019-01-27T14:05:43.471Z,97566.53
2019-01-27T14:08:13.021Z,97566.34
2019-01-27T14:10:42.841Z,97568.91
2019-01-27T14:13:12.313Z,97566.73
2019-01-27T14:15:41.976Z,97561.05
2019-01-27T14:18:11.602Z,97561.45
2019-01-27T14:20:41.134Z,97574.39
2019-01-27T14:23:10.701Z,97571.65
2019-01-27T14:25:40.184Z,97571.27
2019-01-27T14:28:09.840Z,97573.24
2019-01-27T14:30:43.479Z,97576.34
2019-01-27T14:33:13.055Z,97578.52
2019-01-27T14:35:42.635Z,97583.05
2019-01-27T14:38:12.202Z,97582.66
2019-01-27T14:40:41.830Z,97582.08
2019-01-27T14:43:11.334Z,97595.03
2019-01-27T14:45:40.911Z,97594.45
2019-01-27T14:48:10.544Z,97597.41
2019-01-27T14:50:44.584Z,97611.55
2019-01-27T14:53:14.250Z,97601.92
2019-01-27T14:55:44.032Z,97607.04
2019-01-27T14:58:13.620Z,97617.63
2019-01-27T15:00:45.212Z,97621.75
2019-01-27T15:03:15.614Z,97616.45
2019-01-27T15:05:45.176Z,97615.09
2019-01-27T15:08:14.675Z,97621.54
2019-01-27T15:10:44.487Z,97628.02
2019-01-27T15:13:14.139Z,97632.52
2019-01-27T15:15:43.725Z,97637.23
2019-01-27T15:18:13.294Z,97632.89
2019-01-27T15:20:49.952Z,97630.13
2019-01-27T15:23:19.438Z,97631.89
2019-01-27T15:25:49.118Z,97633.84
2019-01-27T15:28:18.669Z,97637.17
2019-01-27T15:30:48.235Z,97637.17
2019-01-27T15:33:17.786Z,97646.19
2019-01-27T15:35:47.410Z,97644.98
2019-01-27T15:38:16.997Z,97646.94
2019-01-27T15:40:46.599Z,97656.14
2019-01-27T15:43:16.163Z,97655.55
2019-01-27T15:45:45.657Z,97664.34
2019-01-27T15:48:15.182Z,97671.38
2019-01-27T15:50:44.778Z,97670.77
2019-01-27T15:53:14.504Z,97691.53
2019-01-27T15:55:44.201Z,97694.66
2019-01-27T15:58:13.835Z,97697.96
2019-01-27T16:00:43.366Z,97707.49
2019-01-27T16:03:12.961Z,97732.72
2019-01-27T16:05:42.483Z,97731.48
2019-01-27T16:08:12.086Z,97737.45
2019-01-27T16:10:41.629Z,97734.83
2019-01-27T16:13:11.158Z,97746.06
2019-01-27T16:15:40.839Z,97756.14
2019-01-27T16:18:10.451Z,97761.34
2019-01-27T16:20:39.970Z,97766.92
2019-01-27T16:23:19.898Z,97776.23
2019-01-27T16:25:49.543Z,97780.06
2019-01-27T16:28:19.100Z,97782.49
2019-01-27T16:30:51.233Z,97787.89
2019-01-27T16:33:25.408Z,97796.23
2019-01-27T16:35:54.930Z,97816.72
2019-01-27T16:38:24.635Z,97821.72
2019-01-27T16:40:54.185Z,97822.47
2019-01-27T16:43:23.748Z,97836.30
2019-01-27T16:45:53.343Z,97836.27
2019-01-27T16:48:22.922Z,97841.32
2019-01-27T16:50:52.534Z,97850.47
2019-01-27T16:53:22.144Z,97859.03
2019-01-27T16:55:51.714Z,97859.42
2019-01-27T16:58:21.298Z,97864.48
2019-01-27T17:00:50.987Z,97868.37
2019-01-27T17:03:20.599Z,97863.85
2019-01-27T17:05:50.175Z,97872.62
2019-01-27T17:08:19.654Z,97875.95
2019-01-27T17:10:49.290Z,97886.88
2019-01-27T17:13:18.901Z,97889.61
2019-01-27T17:15:48.437Z,97894.88
2019-01-27T17:18:18.016Z,97892.88
2019-01-27T17:20:47.677Z,97902.45
2019-01-27T17:23:17.505Z,97908.86
2019-01-27T17:25:47.156Z,97901.82
2019-01-27T17:28:16.644Z,97910.02
2019-01-27T17:30:46.356Z,97907.08
2019-01-27T17:33:15.931Z,97919.80
2019-01-27T17:35:45.475Z,97922.53
2019-01-27T17:38:15.005Z,97929.16
2019-01-27T17:40:44.733Z,97929.37
2019-01-27T17:43:14.313Z,97933.47
2019-01-27T17:45:43.858Z,97941.67
2019-01-27T17:48:13.425Z,97949.88
2019-01-27T17:50:43.021Z,97948.30
2019-01-27T17:53:12.603Z,97953.34
2019-01-27T17:55:43.480Z,97957.02
2019-01-27T17:58:37.860Z,97964.98
2019-01-27T18:01:09.594Z,97979.39
2019-01-27T18:03:43.533Z,97974.66
2019-01-27T18:06:30.136Z,97986.73
2019-01-27T18:09:03.945Z,97980.08
2019-01-27T18:11:35.184Z,97986.48
2019-01-27T18:14:07.043Z,97989.78
2019-01-27T18:16:36.620Z,97983.90
2019-01-27T18:19:06.140Z,98001.23
2019-01-27T18:21:35.649Z,98008.66
2019-01-27T18:24:05.664Z,98006.28
2019-01-27T18:26:35.365Z,98011.75
2019-01-27T18:29:05.553Z,98012.91
2019-01-27T18:31:35.185Z,98019.73
2019-01-27T18:34:04.935Z,98022.47
2019-01-27T18:36:34.499Z,98029.30
2019-01-27T18:39:05.691Z,98032.24
2019-01-27T18:41:35.208Z,98032.24
2019-01-27T18:44:04.906Z,98037.70
2019-01-27T18:46:34.489Z,98048.64
2019-01-27T18:49:04.253Z,98042.40
2019-01-27T18:51:33.730Z,98052.91
2019-01-27T18:54:10.641Z,98046.64
2019-01-27T18:56:41.736Z,98061.45
2019-01-27T18:59:15.641Z,98061.45
2019-01-27T19:01:58.667Z,98058.51
2019-01-27T19:04:38.693Z,98069.23
2019-01-27T19:07:10.015Z,98064.14
2019-01-27T19:09:49.563Z,98067.22
2019-01-27T19:12:29.350Z,98076.22
2019-01-27T19:15:00.580Z,98080.11
2019-01-27T19:17:37.424Z,98077.94
2019-01-27T19:20:16.468Z,98085.58
2019-01-27T19:22:53.367Z,98086.13
2019-01-27T19:25:24.728Z,98087.50
2019-01-27T19:28:05.896Z,98087.50
2019-01-27T19:30:39.807Z,98082.03
2019-01-27T19:33:16.696Z,98089.08
2019-01-27T19:35:45.979Z,98098.64
2019-01-27T19:38:25.645Z,98101.80
2019-01-27T19:41:11.919Z,98102.02
2019-01-27T19:43:43.041Z,98102.83
2019-01-27T19:46:19.896Z,98112.60
2019-01-27T19:48:53.505Z,98109.27
2019-01-27T19:51:42.497Z,98113.59
2019-01-27T19:54:29.330Z,98114.74
2019-01-27T19:57:09.131Z,98123.95
2019-01-27T19:59:40.270Z,98127.25
2019-01-27T20:02:11.441Z,98120.42
2019-01-27T20:04:42.619Z,98124.73
2019-01-27T20:07:16.553Z,98125.33
2019-01-27T20:09:50.628Z,98127.25
2019-01-27T20:12:25.694Z,98123.16
2019-01-27T20:14:56.855Z,98118.84
2019-01-27T20:17:41.012Z,98129.77
2019-01-27T20:20:31.368Z,98129.55
2019-01-27T20:23:18.288Z,98133.87
2019-01-27T20:26:07.285Z,98140.70
2019-01-27T20:28:50.446Z,98146.76
2019-01-27T20:31:31.872Z,98141.64
2019-01-27T20:34:06.008Z,98153.88
2019-01-27T20:36:55.009Z,98153.80
2019-01-27T20:39:28.588Z,98147.48
2019-01-27T20:42:15.618Z,98143.67
2019-01-27T20:44:49.440Z,98140.30
2019-01-27T20:47:23.296Z,98143.75
2019-01-27T20:49:57.098Z,98143.11
2019-01-27T20:52:30.989Z,98147.55
2019-01-27T20:55:04.608Z,98153.94
2019-01-27T20:57:41.586Z,98154.31
2019-01-27T21:00:19.931Z,98148.64
2019-01-27T21:02:51.511Z,98159.56
2019-01-27T21:05:22.635Z,98153.89
2019-01-27T21:08:08.272Z,98158.20
2019-01-27T21:10:39.457Z,98160.12
2019-01-27T21:13:13.253Z,98137.33
2019-01-27T21:15:48.003Z,98158.63
2019-01-27T21:18:31.362Z,98157.48
2019-01-27T21:21:01.010Z,98157.70
2019-01-27T21:23:30.627Z,98149.94
2019-01-27T21:26:00.165Z,98141.95
2019-01-27T21:28:30.631Z,98153.31
2019-01-27T21:31:00.137Z,98148.06
2019-01-27T21:33:29.675Z,98158.19
2019-01-27T21:35:59.174Z,98155.11
2019-01-27T21:38:28.867Z,98149.64
2019-01-27T21:40:58.431Z,98145.76
2019-01-27T21:43:27.896Z,98141.45
2019-01-27T21:45:57.545Z,98149.98
2019-01-27T21:48:27.005Z,98148.41
2019-01-27T21:50:56.552Z,98154.46
2019-01-27T21:53:26.017Z,98147.63
2019-01-27T21:55:55.526Z,98144.69
2019-01-27T21:58:25.025Z,98144.47
2019-01-27T22:00:54.587Z,98144.47
2019-01-27T22:03:24.623Z,98141.73
2019-01-27T22:05:54.222Z,98141.73
2019-01-27T22:08:23.729Z,98138.80
2019-01-27T22:10:53.232Z,98144.25
2019-01-27T22:13:22.749Z,98144.25
2019-01-27T22:15:52.246Z,98149.94
2019-01-27T22:18:21.830Z,98141.73
2019-01-27T22:20:51.293Z,98153.81
2019-01-27T22:23:20.769Z,98148.14
2019-01-27T22:25:50.301Z,98139.52
2019-01-27T22:28:19.774Z,98145.53
2019-01-27T22:30:49.357Z,98155.47
2019-01-27T22:33:18.832Z,98149.79
2019-01-27T22:35:48.393Z,98143.52
2019-01-27T22:38:17.963Z,98146.81
2019-01-27T22:40:47.519Z,98146.81
2019-01-27T22:43:17.018Z,98148.18
2019-01-27T22:45:46.595Z,98146.04
2019-01-27T22:48:16.242Z,98145.45
2019-01-27T22:50:45.836Z,98149.79
2019-01-27T22:53:15.342Z,98141.81
2019-01-27T22:55:44.888Z,98136.91
2019-01-27T22:58:14.351Z,98135.20
2019-01-27T23:00:56.035Z,98133.84
2019-01-27T23:03:25.677Z,98131.53
2019-01-27T23:05:55.197Z,98131.53
2019-01-27T23:08:24.696Z,98135.63
2019-01-27T23:10:54.229Z,98132.31
2019-01-27T23:13:23.846Z,98138.36
2019-01-27T23:15:53.360Z,98142.45
2019-01-27T23:18:22.820Z,98141.31
2019-01-27T23:20:52.300Z,98139.01
2019-01-27T23:23:21.839Z,98129.88
2019-01-27T23:25:51.348Z,98141.02
2019-01-27T23:28:20.969Z,98137.34
2019-01-27T23:30:50.436Z,98134.83
2019-01-27T23:33:19.976Z,98133.68
2019-01-27T23:35:49.524Z,98140.73
2019-01-27T23:38:19.165Z,98144.23
2019-01-27T23:40:48.649Z,98143.89
2019-01-27T23:43:18.149Z,98146.24
2019-01-27T23:45:47.758Z,98144.31
2019-01-27T23:48:17.281Z,98147.48
2019-01-27T23:50:47.006Z,98151.20
2019-01-27T23:53:16.479Z,98149.48
2019-01-27T23:55:45.992Z,98152.44
2019-01-27T23:58:15.497Z,98162.64
